Airfield :
LOGIN :

Register | Disclaimer

   EN    FR    IT 

 










Legend :    VFR   Marginal VFR   IFR   Intensive IFR   Very Intensive IFR
Visi :
Ceiling :
>= 8 km
>= 3000ft
5 to 8 km
1000 to 3000 ft
1500m to 5 km
500 to 1000 ft
800 to 1500m
200 to 500 ft
< 800m
< 200 ft
Symbols :   Thunderstorms  Fog  Heavy snow  Heavy precipitations  Wind > 20 kt
SIGMETs :     Misc.  Thunderstorms  Icing  Turbulence  Mountain Waves  Volcanic Ashes






- Airport Elevation : 220 ft
- IATA code : CWL


EGFF - Cardiff Rhoose

CURRENT METAR :
  • 060550Z AUTO 26009KT 9999 FEW024 09/08 Q1011

EXPIRED METARs :
  • 060520Z AUTO 26011KT 9999 BKN022 09/09 Q1010
  • 060450Z AUTO 26013KT 9999 SCT022 09/09 Q1010
  • 060420Z AUTO 26011KT 9999 SCT013 10/09 Q1010
  • 060350Z AUTO 26008KT 9999 BKN049 10/09 Q1009
  • 060320Z AUTO 26010KT 9999 SCT015 SCT036 OVC042 10/09 Q1009

TAF TAF EGFF
Valid from the 06 at 06:00 until the 07 at 06:00 UTC


060508Z 0606/0706 26013KT 9999 SCT028
PROB30
TEMPO 0610/0615 8000 -SHRA
BECMG 0621/0624 VRB04KT
ATIS : +44 1446 729 319



MET'MAP, your aeronautical weather chart ! - Copyright ORBIFLY December 2007 - Disclaimer

ORBIFLY MET'MAP TEAM :

Programming & Development : Alexandra Zaïnal
Concept & original design : Baudouin d'Aumeries
Assistance for programming : Marc-Olivier Méhu
Technical & hardware support : Manuel Goepfert

Contact : metmap@orbifly.com




SOURCES & CREDITS :

   NOAA